This is the latest recevied weather packets stored in our database for station/object DL4ABR-6. If no packets are shown the sender has not sent any weather packets the latest 10 day(s).
| Time | Temp. | Humidity | Pressure | Rain* | Wind** | Luminosity | Snow |
|---|---|---|---|---|---|---|---|
| 1777885275 | 18.89° C | 72% | 1009.2 hPa | 0 mm | - | - | - |
| 1777884498 | 17.78° C | 73% | 1009.4 hPa | 0 mm | - | - | - |
| 1777883760 | 18.33° C | 72% | 1009.4 hPa | 0 mm | - | - | - |
| 1777882890 | 18.89° C | 71% | 1009.2 hPa | 0 mm | - | - | - |
| 1777882055 | 18.89° C | 72% | 1009.2 hPa | 0 mm | - | - | - |
| 1777881275 | 17.22° C | 75% | 1009.5 hPa | 0 mm | - | - | - |
| 1777880515 | 16.67° C | 76% | 1009.1 hPa | 0 mm | - | - | - |
| 1777879685 | 17.22° C | 75% | 1009 hPa | 0 mm | - | - | - |
| 1777878815 | 16.67° C | 75% | 1008.9 hPa | 0 mm | - | - | - |
| 1777878051 | 16.67° C | 75% | 1009 hPa | 0 mm | - | - | - |
| 1777877265 | 16.11° C | 75% | 1008.5 hPa | 0 mm | - | - | - |
| 1777876385 | 16.11° C | 77% | 1008.5 hPa | 0 mm | - | - | - |
| 1777875665 | 16.11° C | 77% | 1008.6 hPa | 0 mm | - | - | - |
| 1777874900 | 15.56° C | 78% | 1008.2 hPa | 0 mm | - | - | - |
| 1777874080 | 15.56° C | 79% | 1008 hPa | 0 mm | - | - | - |
| 1777873265 | 15.56° C | 78% | 1008.1 hPa | 0 mm | - | - | - |
| 1777872535 | 15° C | 78% | 1008.3 hPa | 0 mm | - | - | - |
| 1777871650 | 15° C | 76% | 1008.5 hPa | 0 mm | - | - | - |
| 1777870905 | 15° C | 75% | 1008 hPa | 0 mm | - | - | - |
| 1777870045 | 15° C | 75% | 1007.8 hPa | 0 mm | - | - | - |
| 1777869220 | 15° C | 76% | 1007.8 hPa | 0 mm | - | - | - |
| 1777868445 | 15° C | 75% | 1007.9 hPa | 0 mm | - | - | - |
| 1777867660 | 15° C | 76% | 1007.5 hPa | 0 mm | - | - | - |
| 1777866915 | 15° C | 76% | 1007.7 hPa | 0 mm | - | - | - |
| 1777866030 | 15° C | 77% | 1007.2 hPa | 0 mm | - | - | - |
* Rain since midnight (hover to see other rain measurements)
** Current wind speed in m/s (hover to see current wind gust speed)